Time;durP1;ratioP1;P1;durP2;ratioP2;P2;SDS_P1;SDS_P2;PMS_P1;PMS_P2;Temp;Humidity;BMP_temperature;BMP_pressure;BME280_temperature;BME280_humidity;BME280_pressure;Samples;Min_cycle;Max_cycle;Signal;HPM_P1;HPM_P2
2021/04/25 00:01:34;;;;;;;7.90;6.00;;;;;;;;;;5021858;28;20229;-83
2021/04/25 00:04:00;;;;;;;8.90;6.80;;;;;;;;;;5023138;28;20239;-83
2021/04/25 00:06:26;;;;;;;8.38;6.65;;;;;;;;;;5041617;28;20459;-85
2021/04/25 00:08:52;;;;;;;7.50;5.40;;;;;;;;;;5039097;28;20186;-83
2021/04/25 00:11:18;;;;;;;7.57;6.30;;;;;;;;;;5056002;28;20538;-85
2021/04/25 00:13:44;;;;;;;10.70;6.30;;;;;;;;;;5038918;28;20182;-81
2021/04/25 00:16:11;;;;;;;5.85;5.13;;;;;;;;;;5040214;28;20210;-84
2021/04/25 00:18:38;;;;;;;8.95;5.38;;;;;;;;;;5043850;28;20190;-81
2021/04/25 00:21:04;;;;;;;6.95;5.38;;;;;;;;;;5060486;28;20198;-86
2021/04/25 00:23:30;;;;;;;10.50;5.97;;;;;;;;;;5040514;28;20174;-82
2021/04/25 00:25:56;;;;;;;8.02;5.78;;;;;;;;;;5025397;28;20185;-82
2021/04/25 00:28:22;;;;;;;9.80;6.10;;;;;;;;;;5021220;28;20191;-83
2021/04/25 00:30:48;;;;;;;7.55;5.80;;;;;;;;;;5042987;28;20437;-82
2021/04/25 00:33:14;;;;;;;11.20;7.45;;;;;;;;;;5054349;28;20182;-82
2021/04/25 00:35:40;;;;;;;7.15;5.10;;;;;;;;;;5056428;28;20201;-81
2021/04/25 00:38:06;;;;;;;8.03;6.90;;;;;;;;;;5036104;28;20174;-83
2021/04/25 00:40:32;;;;;;;6.33;5.10;;;;;;;;;;5014718;28;20443;-83
2021/04/25 00:42:58;;;;;;;8.27;5.55;;;;;;;;;;5036592;28;20446;-82
2021/04/25 00:45:24;;;;;;;8.10;5.67;;;;;;;;;;5019577;28;20187;-82
2021/04/25 00:47:50;;;;;;;10.27;5.70;;;;;;;;;;5037160;28;20511;-81
2021/04/25 00:50:19;;;;;;;9.98;5.25;;;;;;;;;;5032649;28;20190;-83
2021/04/25 00:52:47;;;;;;;7.03;5.18;;;;;;;;;;5023770;28;20582;-82
2021/04/25 00:55:14;;;;;;;11.10;6.00;;;;;;;;;;5005963;28;20214;-81
2021/04/25 00:57:41;;;;;;;9.98;5.45;;;;;;;;;;5038521;28;20190;-85
2021/04/25 01:00:08;;;;;;;8.45;5.93;;;;;;;;;;5019493;28;20186;-83
2021/04/25 01:02:35;;;;;;;8.10;4.85;;;;;;;;;;5019989;28;20181;-82
2021/04/25 01:05:01;;;;;;;9.32;5.18;;;;;;;;;;5019014;28;20186;-82
2021/04/25 01:07:27;;;;;;;9.57;5.65;;;;;;;;;;5018094;28;20434;-83
2021/04/25 01:09:53;;;;;;;6.70;5.00;;;;;;;;;;5021363;28;20197;-83
2021/04/25 01:12:19;;;;;;;6.55;4.80;;;;;;;;;;5020006;28;20182;-85
2021/04/25 01:14:45;;;;;;;7.47;5.07;;;;;;;;;;5018382;28;20194;-83
2021/04/25 01:17:11;;;;;;;8.93;6.70;;;;;;;;;;5018884;28;20234;-82
2021/04/25 01:19:37;;;;;;;6.45;5.10;;;;;;;;;;5038140;28;20437;-83
2021/04/25 01:22:03;;;;;;;6.30;5.17;;;;;;;;;;5006051;28;20182;-85
2021/04/25 01:24:29;;;;;;;9.60;6.15;;;;;;;;;;5038611;28;20434;-85
2021/04/25 01:26:55;;;;;;;6.25;5.10;;;;;;;;;;5032800;28;20194;-84
2021/04/25 01:29:21;;;;;;;8.68;5.55;;;;;;;;;;5019560;28;20167;-85
2021/04/25 01:31:47;;;;;;;10.45;5.57;;;;;;;;;;5018374;28;20246;-84
2021/04/25 01:34:13;;;;;;;7.18;5.43;;;;;;;;;;5001180;28;20187;-85
2021/04/25 01:36:39;;;;;;;7.87;5.90;;;;;;;;;;5033280;28;20201;-82
2021/04/25 01:39:05;;;;;;;6.97;4.40;;;;;;;;;;5031259;28;20643;-84
2021/04/25 01:41:31;;;;;;;9.98;7.65;;;;;;;;;;5040317;28;20165;-84
2021/04/25 01:43:58;;;;;;;6.37;4.33;;;;;;;;;;5031991;28;20249;-84
2021/04/25 01:46:24;;;;;;;6.85;5.35;;;;;;;;;;5032304;28;20433;-84
2021/04/25 01:48:50;;;;;;;10.43;5.70;;;;;;;;;;5033723;28;20198;-84
2021/04/25 01:51:16;;;;;;;11.98;5.40;;;;;;;;;;5057562;28;20189;-84
2021/04/25 01:53:42;;;;;;;8.00;5.20;;;;;;;;;;5037854;28;20182;-85
2021/04/25 01:56:08;;;;;;;8.60;6.13;;;;;;;;;;5039395;28;20399;-84
2021/04/25 01:58:34;;;;;;;7.50;4.33;;;;;;;;;;5042179;28;20256;-85
2021/04/25 02:01:00;;;;;;;9.00;5.43;;;;;;;;;;5033265;28;20445;-84
2021/04/25 02:03:26;;;;;;;10.55;4.68;;;;;;;;;;5054520;28;20464;-84
2021/04/25 02:05:53;;;;;;;9.50;5.53;;;;;;;;;;5042097;28;20177;-84
2021/04/25 02:08:19;;;;;;;10.80;5.35;;;;;;;;;;5038359;28;20650;-83
2021/04/25 02:10:45;;;;;;;6.95;5.60;;;;;;;;;;5035506;28;20205;-81
2021/04/25 02:13:12;;;;;;;6.10;4.63;;;;;;;;;;5037047;28;20202;-82
2021/04/25 02:15:38;;;;;;;6.88;4.65;;;;;;;;;;5040173;28;20205;-82
2021/04/25 02:18:04;;;;;;;7.90;5.43;;;;;;;;;;5024639;28;20188;-83
2021/04/25 02:20:30;;;;;;;10.05;5.75;;;;;;;;;;5056471;28;20237;-83
2021/04/25 02:22:56;;;;;;;6.65;4.80;;;;;;;;;;5052240;28;20189;-82
2021/04/25 02:25:23;;;;;;;6.90;4.82;;;;;;;;;;5038136;28;20212;-83
2021/04/25 02:27:49;;;;;;;8.55;5.03;;;;;;;;;;5040620;28;20769;-82
2021/04/25 02:30:17;;;;;;;7.80;4.97;;;;;;;;;;5038402;28;20177;-83
2021/04/25 02:32:43;;;;;;;8.43;5.50;;;;;;;;;;5036624;28;20177;-83
2021/04/25 02:35:10;;;;;;;7.45;5.68;;;;;;;;;;5057077;28;20205;-84
2021/04/25 02:37:36;;;;;;;8.35;5.30;;;;;;;;;;5035992;28;20556;-84
2021/04/25 02:40:04;;;;;;;6.03;5.30;;;;;;;;;;5021364;28;20222;-83
2021/04/25 02:42:30;;;;;;;10.27;5.97;;;;;;;;;;5040423;28;20248;-83
2021/04/25 02:44:56;;;;;;;5.70;4.73;;;;;;;;;;5051629;28;20663;-83
2021/04/25 02:47:22;;;;;;;9.50;5.73;;;;;;;;;;5040942;28;20447;-83
2021/04/25 02:49:48;;;;;;;8.40;5.50;;;;;;;;;;5041423;28;20428;-83
2021/04/25 02:52:14;;;;;;;7.22;5.55;;;;;;;;;;5038132;28;20250;-84
2021/04/25 02:54:40;;;;;;;11.63;5.50;;;;;;;;;;5037634;28;20242;-84
2021/04/25 02:57:06;;;;;;;9.27;6.28;;;;;;;;;;5043946;28;20181;-81
2021/04/25 02:59:32;;;;;;;8.15;5.72;;;;;;;;;;5056906;28;20170;-83
2021/04/25 03:01:58;;;;;;;6.38;5.50;;;;;;;;;;5040200;28;20315;-82
2021/04/25 03:04:24;;;;;;;11.38;5.80;;;;;;;;;;5035315;28;20238;-81
2021/04/25 03:06:50;;;;;;;7.43;5.70;;;;;;;;;;5040533;28;20261;-81
2021/04/25 03:09:16;;;;;;;9.30;6.07;;;;;;;;;;5042313;28;20428;-81
2021/04/25 03:11:42;;;;;;;9.43;5.67;;;;;;;;;;5039974;28;20767;-81
2021/04/25 03:14:08;;;;;;;8.70;5.63;;;;;;;;;;5046454;28;20484;-81
2021/04/25 03:16:34;;;;;;;10.02;5.28;;;;;;;;;;5040711;28;20475;-82
2021/04/25 03:19:00;;;;;;;11.23;6.75;;;;;;;;;;5040587;28;20185;-80
2021/04/25 03:21:26;;;;;;;8.23;5.67;;;;;;;;;;5042233;28;20213;-82
2021/04/25 03:23:52;;;;;;;8.10;5.90;;;;;;;;;;5043830;28;20427;-82
2021/04/25 03:26:18;;;;;;;9.60;6.38;;;;;;;;;;5046497;28;20174;-82
2021/04/25 03:28:44;;;;;;;8.82;5.65;;;;;;;;;;5013124;28;20243;-83
2021/04/25 03:31:10;;;;;;;9.00;5.97;;;;;;;;;;5056199;28;20192;-85
2021/04/25 03:33:36;;;;;;;9.15;5.60;;;;;;;;;;5044674;28;20213;-82
2021/04/25 03:36:02;;;;;;;14.52;7.18;;;;;;;;;;5055106;28;20213;-83
2021/04/25 03:38:28;;;;;;;9.48;5.70;;;;;;;;;;5044467;28;20221;-82
2021/04/25 03:40:56;;;;;;;6.37;5.57;;;;;;;;;;5054567;28;20186;-82
2021/04/25 03:43:22;;;;;;;8.25;5.53;;;;;;;;;;5022887;28;20448;-81
2021/04/25 03:45:48;;;;;;;7.10;6.10;;;;;;;;;;5021115;28;20193;-83
2021/04/25 03:48:14;;;;;;;7.70;5.63;;;;;;;;;;5044120;28;20245;-82
2021/04/25 03:50:40;;;;;;;9.97;6.33;;;;;;;;;;5059413;28;20448;-82
2021/04/25 03:53:06;;;;;;;8.37;7.43;;;;;;;;;;5056334;28;20424;-82
2021/04/25 03:55:32;;;;;;;10.88;6.10;;;;;;;;;;5044225;28;20479;-84
2021/04/25 03:57:58;;;;;;;7.85;6.50;;;;;;;;;;5025303;28;20239;-83
2021/04/25 04:00:24;;;;;;;9.38;6.65;;;;;;;;;;5045466;28;20212;-83
2021/04/25 04:02:50;;;;;;;8.70;6.00;;;;;;;;;;5059853;28;20178;-82
2021/04/25 04:05:17;;;;;;;11.00;6.68;;;;;;;;;;5055589;28;20182;-82
2021/04/25 04:07:43;;;;;;;8.93;6.55;;;;;;;;;;5020109;28;20197;-82
2021/04/25 04:10:11;;;;;;;10.52;6.80;;;;;;;;;;5038750;28;20205;-83
2021/04/25 04:12:36;;;;;;;7.82;5.90;;;;;;;;;;5026793;28;20189;-81
2021/04/25 04:15:03;;;;;;;10.65;6.25;;;;;;;;;;5044913;28;20209;-83
2021/04/25 04:17:29;;;;;;;11.32;6.80;;;;;;;;;;5055006;28;20180;-80
2021/04/25 04:19:55;;;;;;;11.33;6.60;;;;;;;;;;5038407;28;20541;-81
2021/04/25 04:22:21;;;;;;;8.30;5.60;;;;;;;;;;5039564;28;20436;-83
2021/04/25 04:24:47;;;;;;;11.73;6.63;;;;;;;;;;5022895;28;20464;-81
2021/04/25 04:27:13;;;;;;;8.20;5.67;;;;;;;;;;5040549;28;20710;-84
2021/04/25 04:29:39;;;;;;;12.68;6.80;;;;;;;;;;5026628;28;20417;-82
2021/04/25 04:32:05;;;;;;;10.50;6.30;;;;;;;;;;5038187;28;20186;-83
2021/04/25 04:34:31;;;;;;;8.85;6.43;;;;;;;;;;5023006;28;20456;-83
2021/04/25 04:36:57;;;;;;;8.98;6.30;;;;;;;;;;5040972;28;20190;-83
2021/04/25 04:39:23;;;;;;;7.22;5.65;;;;;;;;;;5041289;28;20206;-82
2021/04/25 04:41:50;;;;;;;10.00;6.32;;;;;;;;;;5054327;28;20174;-82
2021/04/25 04:44:16;;;;;;;9.52;6.80;;;;;;;;;;5055528;28;20176;-82
2021/04/25 04:46:42;;;;;;;8.40;6.05;;;;;;;;;;5021205;28;20190;-83
2021/04/25 04:49:08;;;;;;;8.85;5.55;;;;;;;;;;5054148;28;20221;-83
2021/04/25 04:51:34;;;;;;;8.40;5.95;;;;;;;;;;5042011;28;20189;-81
2021/04/25 04:54:00;;;;;;;13.25;5.90;;;;;;;;;;5039182;28;20178;-83
2021/04/25 04:56:26;;;;;;;10.85;5.97;;;;;;;;;;5039609;28;20259;-84
2021/04/25 04:58:52;;;;;;;9.07;5.82;;;;;;;;;;5024688;28;20272;-81
2021/04/25 05:01:18;;;;;;;9.80;6.80;;;;;;;;;;5019575;28;20186;-84
2021/04/25 05:03:44;;;;;;;9.07;5.30;;;;;;;;;;5022292;28;20663;-83
2021/04/25 05:06:10;;;;;;;7.93;5.20;;;;;;;;;;5021975;28;20186;-82
2021/04/25 05:08:36;;;;;;;7.57;5.60;;;;;;;;;;5034727;28;20522;-81
2021/04/25 05:11:02;;;;;;;9.63;5.03;;;;;;;;;;5055360;28;20174;-80
2021/04/25 05:13:28;;;;;;;11.50;5.55;;;;;;;;;;5037226;28;20638;-80
2021/04/25 05:15:54;;;;;;;8.23;5.55;;;;;;;;;;5043271;28;20206;-81
2021/04/25 05:18:20;;;;;;;7.30;5.30;;;;;;;;;;5042691;28;20209;-82
2021/04/25 05:20:46;;;;;;;7.20;4.80;;;;;;;;;;5052977;28;20424;-84
2021/04/25 05:23:12;;;;;;;8.45;5.53;;;;;;;;;;5043651;28;20475;-81
2021/04/25 05:25:38;;;;;;;6.28;4.47;;;;;;;;;;5038304;28;20197;-81
2021/04/25 05:28:04;;;;;;;4.47;4.00;;;;;;;;;;5051873;28;20214;-84
2021/04/25 05:30:30;;;;;;;10.88;5.72;;;;;;;;;;5040665;28;20245;-80
2021/04/25 05:32:56;;;;;;;9.45;4.85;;;;;;;;;;5049956;28;20647;-81
2021/04/25 05:35:22;;;;;;;8.27;4.65;;;;;;;;;;5043587;28;20205;-80
2021/04/25 05:37:48;;;;;;;8.82;4.75;;;;;;;;;;5042632;28;20212;-79
2021/04/25 05:40:15;;;;;;;6.07;4.75;;;;;;;;;;5038576;28;20213;-82
2021/04/25 05:42:41;;;;;;;7.15;5.20;;;;;;;;;;5040401;28;20368;-81
2021/04/25 05:45:07;;;;;;;8.25;4.28;;;;;;;;;;5037468;28;20320;-81
2021/04/25 05:47:34;;;;;;;5.38;3.67;;;;;;;;;;5054642;28;20185;-82
2021/04/25 05:50:00;;;;;;;6.28;3.33;;;;;;;;;;5037472;28;20185;-78
2021/04/25 05:52:26;;;;;;;7.43;3.90;;;;;;;;;;5041717;28;20186;-83
2021/04/25 05:54:52;;;;;;;9.82;5.00;;;;;;;;;;5026939;28;20218;-81
2021/04/25 05:57:18;;;;;;;6.53;4.30;;;;;;;;;;5028390;28;20227;-81
2021/04/25 05:59:44;;;;;;;7.13;4.55;;;;;;;;;;5042324;28;20197;-80
2021/04/25 06:02:10;;;;;;;6.60;4.05;;;;;;;;;;5037677;28;20185;-82
2021/04/25 06:04:39;;;;;;;6.47;4.10;;;;;;;;;;5033983;28;20184;-81
2021/04/25 06:07:04;;;;;;;7.50;4.07;;;;;;;;;;5021267;28;20448;-81
2021/04/25 06:09:30;;;;;;;6.93;4.00;;;;;;;;;;5034199;28;20265;-79
2021/04/25 06:11:56;;;;;;;6.32;4.43;;;;;;;;;;5056635;28;20441;-80
2021/04/25 06:14:22;;;;;;;9.13;3.80;;;;;;;;;;5042813;28;20169;-80
2021/04/25 06:16:48;;;;;;;6.40;4.05;;;;;;;;;;5036359;28;20487;-81
2021/04/25 06:19:14;;;;;;;8.73;4.00;;;;;;;;;;5037514;28;20202;-79
2021/04/25 06:21:40;;;;;;;7.07;4.38;;;;;;;;;;5040685;28;20208;-79
2021/04/25 06:24:07;;;;;;;4.95;3.42;;;;;;;;;;5057649;28;20228;-80
2021/04/25 06:26:33;;;;;;;7.93;3.60;;;;;;;;;;5038739;28;20177;-80
2021/04/25 06:28:58;;;;;;;5.20;3.65;;;;;;;;;;5036367;28;20196;-82
2021/04/25 06:31:25;;;;;;;7.47;3.92;;;;;;;;;;5022774;28;20539;-81
2021/04/25 06:33:51;;;;;;;9.60;4.00;;;;;;;;;;5042279;28;20186;-79
2021/04/25 06:36:17;;;;;;;6.10;3.83;;;;;;;;;;5042364;28;20205;-80
2021/04/25 06:38:43;;;;;;;9.02;4.72;;;;;;;;;;5056035;28;20235;-79
2021/04/25 06:41:09;;;;;;;10.10;4.77;;;;;;;;;;5057023;28;20189;-79
2021/04/25 06:43:35;;;;;;;11.33;5.13;;;;;;;;;;5043087;28;20456;-78
2021/04/25 06:46:02;;;;;;;6.35;4.18;;;;;;;;;;5022794;28;20455;-82
2021/04/25 06:48:28;;;;;;;6.95;4.07;;;;;;;;;;5055172;28;20187;-81
2021/04/25 06:50:54;;;;;;;8.40;3.67;;;;;;;;;;5056331;28;20364;-79
2021/04/25 06:53:20;;;;;;;7.27;3.80;;;;;;;;;;5045567;28;20181;-80
2021/04/25 06:55:46;;;;;;;7.97;4.05;;;;;;;;;;5058874;28;20471;-78
2021/04/25 06:58:12;;;;;;;9.00;4.70;;;;;;;;;;5042901;28;20189;-78
2021/04/25 07:00:38;;;;;;;6.15;3.85;;;;;;;;;;5041307;28;20447;-81
2021/04/25 07:03:04;;;;;;;6.57;4.22;;;;;;;;;;5039841;28;20214;-79
2021/04/25 07:05:30;;;;;;;8.70;4.47;;;;;;;;;;5035780;28;20190;-80
2021/04/25 07:07:56;;;;;;;7.15;4.03;;;;;;;;;;5040150;28;20257;-82
2021/04/25 07:10:22;;;;;;;9.70;4.55;;;;;;;;;;5035380;28;20183;-79
2021/04/25 07:12:48;;;;;;;8.43;5.07;;;;;;;;;;5020411;28;20244;-77
2021/04/25 07:15:14;;;;;;;10.63;4.60;;;;;;;;;;5036576;28;20202;-76
2021/04/25 07:17:40;;;;;;;8.75;4.25;;;;;;;;;;5032524;28;20440;-80
2021/04/25 07:20:07;;;;;;;6.20;4.00;;;;;;;;;;5045420;28;20663;-82
2021/04/25 07:22:33;;;;;;;6.72;3.90;;;;;;;;;;5035586;28;20194;-79
2021/04/25 07:24:59;;;;;;;8.80;4.40;;;;;;;;;;5034532;28;20181;-77
2021/04/25 07:27:25;;;;;;;6.35;4.78;;;;;;;;;;5034109;28;20607;-77
2021/04/25 07:29:51;;;;;;;5.63;4.15;;;;;;;;;;5039955;28;20178;-80
2021/04/25 07:32:17;;;;;;;6.75;3.90;;;;;;;;;;5039434;28;20226;-80
2021/04/25 07:34:44;;;;;;;12.50;5.80;;;;;;;;;;5023541;28;20213;-77
2021/04/25 07:37:10;;;;;;;5.50;4.00;;;;;;;;;;5037562;28;20197;-79
2021/04/25 07:39:36;;;;;;;5.82;4.03;;;;;;;;;;5026810;28;20210;-79
2021/04/25 07:42:03;;;;;;;9.18;4.97;;;;;;;;;;5057186;28;20186;-79
2021/04/25 07:44:29;;;;;;;9.90;5.20;;;;;;;;;;5058735;28;20925;-80
2021/04/25 07:46:56;;;;;;;4.63;3.70;;;;;;;;;;5038272;28;20189;-81
2021/04/25 07:49:22;;;;;;;9.63;4.25;;;;;;;;;;5037769;28;20516;-84
2021/04/25 07:51:48;;;;;;;5.75;3.90;;;;;;;;;;5018152;28;20193;-86
2021/04/25 07:54:14;;;;;;;17.02;4.90;;;;;;;;;;5040527;28;20181;-84
2021/04/25 07:56:41;;;;;;;8.20;5.00;;;;;;;;;;5040073;28;20239;-82
2021/04/25 07:59:07;;;;;;;6.60;4.50;;;;;;;;;;5040260;28;20182;-80
2021/04/25 08:01:33;;;;;;;7.22;4.72;;;;;;;;;;5043082;28;20178;-79
2021/04/25 08:03:59;;;;;;;5.22;4.05;;;;;;;;;;5040394;28;20273;-82
2021/04/25 08:06:26;;;;;;;7.07;3.87;;;;;;;;;;5056823;28;20777;-77
2021/04/25 08:08:52;;;;;;;7.85;4.65;;;;;;;;;;5038674;28;20528;-84
2021/04/25 08:11:18;;;;;;;7.85;5.57;;;;;;;;;;5055484;28;20182;-83
2021/04/25 08:13:45;;;;;;;6.72;3.85;;;;;;;;;;5037533;28;20253;-78
2021/04/25 08:16:11;;;;;;;8.02;4.78;;;;;;;;;;5025985;28;20232;-79
2021/04/25 08:18:37;;;;;;;7.50;4.60;;;;;;;;;;5038435;28;20428;-78
2021/04/25 08:21:03;;;;;;;7.00;4.37;;;;;;;;;;5052509;28;20448;-80
2021/04/25 08:23:29;;;;;;;12.48;5.80;;;;;;;;;;5031891;28;20424;-78
2021/04/25 08:25:54;;;;;;;6.80;4.40;;;;;;;;;;5041115;28;20190;-78
2021/04/25 08:28:21;;;;;;;6.20;4.90;;;;;;;;;;5037471;28;20480;-79
2021/04/25 08:30:47;;;;;;;10.63;4.50;;;;;;;;;;5031261;28;20432;-80
2021/04/25 08:33:13;;;;;;;8.40;4.88;;;;;;;;;;5034986;28;20708;-80
2021/04/25 08:35:39;;;;;;;8.25;5.15;;;;;;;;;;5054721;28;20205;-83
2021/04/25 08:38:05;;;;;;;5.32;3.75;;;;;;;;;;5031899;28;20177;-82
2021/04/25 08:40:31;;;;;;;8.82;4.88;;;;;;;;;;5039418;28;20253;-81
2021/04/25 08:42:58;;;;;;;7.03;4.45;;;;;;;;;;5057209;28;20204;-81
2021/04/25 08:45:25;;;;;;;7.00;4.75;;;;;;;;;;5041789;28;20182;-79
2021/04/25 08:47:57;;;;;;;8.40;5.20;;;;;;;;;;5052753;28;20178;-79
2021/04/25 08:50:25;;;;;;;8.85;4.85;;;;;;;;;;5045009;28;20174;-80
2021/04/25 08:52:51;;;;;;;9.85;5.07;;;;;;;;;;5038431;28;20192;-81
2021/04/25 08:55:17;;;;;;;6.10;5.28;;;;;;;;;;5018045;28;20214;-81
2021/04/25 08:57:43;;;;;;;6.30;4.85;;;;;;;;;;5040461;28;20206;-81
2021/04/25 09:00:09;;;;;;;9.70;6.00;;;;;;;;;;5054490;28;20583;-84
2021/04/25 09:02:35;;;;;;;7.13;4.72;;;;;;;;;;5041130;28;20444;-80
2021/04/25 09:05:02;;;;;;;6.90;4.63;;;;;;;;;;5038157;28;20174;-83
2021/04/25 09:07:28;;;;;;;8.60;5.13;;;;;;;;;;5038666;28;20441;-84
2021/04/25 09:10:00;;;;;;;7.82;5.13;;;;;;;;;;5041463;28;20197;-81
2021/04/25 09:12:31;;;;;;;6.07;4.97;;;;;;;;;;5041457;28;20201;-87
2021/04/25 09:14:57;;;;;;;8.38;5.25;;;;;;;;;;5053719;28;20225;-82
2021/04/25 09:17:23;;;;;;;8.05;4.30;;;;;;;;;;5054741;28;20173;-82
2021/04/25 09:19:54;;;;;;;4.78;3.90;;;;;;;;;;5053144;28;20193;-81
2021/04/25 09:22:21;;;;;;;7.18;5.57;;;;;;;;;;5037687;28;20179;-81
2021/04/25 09:24:48;;;;;;;6.60;5.00;;;;;;;;;;5024779;28;20204;-82
2021/04/25 09:27:27;;;;;;;12.88;5.55;;;;;;;;;;5025846;28;20178;-83
2021/04/25 09:29:59;;;;;;;10.32;5.85;;;;;;;;;;5038137;28;20189;-80
2021/04/25 09:32:27;;;;;;;6.63;4.65;;;;;;;;;;5039185;28;20174;-80
2021/04/25 09:35:07;;;;;;;5.45;4.47;;;;;;;;;;5038151;28;20265;-81
2021/04/25 09:37:34;;;;;;;10.48;5.63;;;;;;;;;;5041159;28;20177;-82
2021/04/25 09:40:00;;;;;;;7.38;4.55;;;;;;;;;;5035519;28;20622;-82
2021/04/25 09:42:27;;;;;;;9.55;5.88;;;;;;;;;;5040829;28;20191;-79
2021/04/25 09:44:53;;;;;;;8.77;4.50;;;;;;;;;;5041189;28;20256;-81
2021/04/25 09:47:29;;;;;;;10.45;4.72;;;;;;;;;;5037263;28;20244;-86
2021/04/25 09:49:55;;;;;;;9.38;4.65;;;;;;;;;;5037616;28;20177;-84
2021/04/25 09:52:27;;;;;;;9.13;4.63;;;;;;;;;;5029923;28;20228;-80
2021/04/25 09:55:12;;;;;;;8.55;5.47;;;;;;;;;;5039635;28;20509;-80
2021/04/25 09:57:38;;;;;;;8.32;5.05;;;;;;;;;;5042677;28;20207;-83
2021/04/25 10:00:05;;;;;;;7.73;5.10;;;;;;;;;;5043066;28;20257;-78
2021/04/25 10:02:32;;;;;;;8.60;5.20;;;;;;;;;;5054908;28;20419;-81
2021/04/25 10:05:06;;;;;;;8.10;5.50;;;;;;;;;;5034169;28;20220;-79
2021/04/25 10:07:35;;;;;;;9.63;4.95;;;;;;;;;;5037543;28;20189;-83
2021/04/25 10:10:18;;;;;;;7.88;4.80;;;;;;;;;;5038873;28;20199;-83
2021/04/25 10:12:45;;;;;;;11.20;6.20;;;;;;;;;;5041968;28;20185;-79
2021/04/25 10:15:11;;;;;;;8.30;5.78;;;;;;;;;;5038343;28;20217;-79
2021/04/25 10:17:41;;;;;;;7.80;5.22;;;;;;;;;;5037993;28;20176;-85
2021/04/25 10:20:07;;;;;;;8.27;5.32;;;;;;;;;;5037869;28;20219;-79
2021/04/25 10:22:34;;;;;;;8.50;5.18;;;;;;;;;;5031209;28;20188;-84
2021/04/25 10:25:00;;;;;;;9.02;5.03;;;;;;;;;;5039660;28;20186;-82
2021/04/25 10:27:27;;;;;;;10.45;6.50;;;;;;;;;;5040620;28;20220;-80
2021/04/25 10:29:59;;;;;;;7.90;5.80;;;;;;;;;;5037005;28;20174;-80
2021/04/25 10:32:26;;;;;;;8.75;5.45;;;;;;;;;;5058221;28;20376;-78
2021/04/25 10:35:10;;;;;;;8.20;5.93;;;;;;;;;;5042353;28;20208;-78
2021/04/25 10:37:40;;;;;;;6.90;5.07;;;;;;;;;;5035108;28;20212;-81
2021/04/25 10:40:21;;;;;;;10.82;5.80;;;;;;;;;;5032546;28;20237;-82
2021/04/25 10:43:00;;;;;;;8.38;5.72;;;;;;;;;;5017214;28;20182;-81
2021/04/25 10:45:31;;;;;;;8.27;5.57;;;;;;;;;;5012102;28;20196;-78
2021/04/25 10:48:15;;;;;;;13.68;5.57;;;;;;;;;;5030948;28;20187;-80
2021/04/25 10:50:43;;;;;;;10.25;5.00;;;;;;;;;;5032204;28;20205;-82
2021/04/25 10:53:19;;;;;;;6.60;5.88;;;;;;;;;;5019420;28;20244;-87
2021/04/25 10:55:50;;;;;;;10.27;6.40;;;;;;;;;;4999233;28;20206;-83
2021/04/25 10:58:16;;;;;;;12.52;6.78;;;;;;;;;;4999440;28;20641;-79
2021/04/25 11:00:45;;;;;;;9.63;5.03;;;;;;;;;;5027639;28;20171;-80
2021/04/25 11:03:28;;;;;;;7.50;5.50;;;;;;;;;;5021735;28;20186;-80
2021/04/25 11:05:54;;;;;;;8.30;5.03;;;;;;;;;;5030792;28;20210;-83
2021/04/25 11:08:20;;;;;;;8.15;5.35;;;;;;;;;;5020039;28;20182;-82
2021/04/25 11:10:49;;;;;;;7.30;5.20;;;;;;;;;;5009748;28;20187;-81
2021/04/25 11:13:34;;;;;;;8.60;6.05;;;;;;;;;;5017679;28;20450;-78
2021/04/25 11:16:01;;;;;;;9.82;5.60;;;;;;;;;;5012120;28;20237;-80
2021/04/25 11:18:44;;;;;;;8.25;5.63;;;;;;;;;;5025438;28;20190;-81
2021/04/25 11:21:29;;;;;;;7.70;4.75;;;;;;;;;;5036474;28;20180;-83
2021/04/25 11:23:56;;;;;;;6.32;5.72;;;;;;;;;;5035586;28;20170;-80
2021/04/25 11:26:38;;;;;;;10.57;5.72;;;;;;;;;;5022384;28;20178;-78
2021/04/25 11:29:23;;;;;;;7.00;4.80;;;;;;;;;;5021286;28;20234;-84
2021/04/25 11:31:51;;;;;;;7.25;5.88;;;;;;;;;;5023337;28;20182;-81
2021/04/25 11:34:23;;;;;;;9.40;5.15;;;;;;;;;;5020994;28;20190;-81
2021/04/25 11:36:50;;;;;;;7.00;4.85;;;;;;;;;;5035132;28;20687;-79
2021/04/25 11:39:18;;;;;;;7.28;4.82;;;;;;;;;;5020370;28;20202;-83
2021/04/25 11:41:45;;;;;;;6.60;4.90;;;;;;;;;;5023021;28;20189;-80
2021/04/25 11:44:11;;;;;;;8.90;5.13;;;;;;;;;;5021289;28;20444;-81
2021/04/25 11:46:37;;;;;;;7.30;4.10;;;;;;;;;;5021227;28;20604;-82
2021/04/25 11:49:04;;;;;;;7.55;4.82;;;;;;;;;;5022451;28;20195;-81
2021/04/25 11:51:31;;;;;;;7.32;5.70;;;;;;;;;;5012640;28;20195;-81
2021/04/25 11:53:57;;;;;;;7.78;5.70;;;;;;;;;;5013132;28;20229;-87
2021/04/25 11:56:27;;;;;;;9.75;5.20;;;;;;;;;;5022705;28;20652;-85
2021/04/25 11:59:07;;;;;;;7.40;3.97;;;;;;;;;;5004933;28;20232;-81
2021/04/25 12:01:33;;;;;;;8.38;5.43;;;;;;;;;;5022337;28;20178;-79
2021/04/25 12:03:59;;;;;;;9.20;4.90;;;;;;;;;;5022459;28;22652;-84
2021/04/25 12:06:25;;;;;;;6.35;4.50;;;;;;;;;;5022602;28;20460;-81
2021/04/25 12:08:55;;;;;;;9.50;4.80;;;;;;;;;;5019360;28;20221;-81
2021/04/25 12:11:25;;;;;;;5.38;3.55;;;;;;;;;;5037015;28;20186;-83
2021/04/25 12:13:51;;;;;;;5.28;4.07;;;;;;;;;;5036635;28;20290;-87
2021/04/25 12:16:18;;;;;;;7.30;4.22;;;;;;;;;;5035094;28;20219;-82
2021/04/25 12:18:44;;;;;;;6.15;4.72;;;;;;;;;;5006788;28;20184;-82
2021/04/25 12:21:21;;;;;;;11.47;3.70;;;;;;;;;;5035294;28;20187;-83
2021/04/25 12:23:52;;;;;;;4.60;3.05;;;;;;;;;;5019659;28;20387;-82
2021/04/25 12:26:19;;;;;;;4.97;3.67;;;;;;;;;;5036002;28;20253;-82
2021/04/25 12:28:45;;;;;;;5.78;4.65;;;;;;;;;;5018323;28;20216;-85
2021/04/25 12:31:12;;;;;;;8.93;4.82;;;;;;;;;;5035368;28;20191;-80
2021/04/25 12:33:44;;;;;;;6.72;5.18;;;;;;;;;;5024188;28;20197;-81
2021/04/25 12:36:12;;;;;;;5.70;3.92;;;;;;;;;;5019833;28;20209;-85
2021/04/25 12:38:39;;;;;;;5.67;3.70;;;;;;;;;;5024392;28;20224;-83
2021/04/25 12:41:05;;;;;;;4.75;3.65;;;;;;;;;;5021377;28;20449;-84
2021/04/25 12:43:51;;;;;;;5.30;3.70;;;;;;;;;;5023983;28;20206;-82
2021/04/25 12:46:19;;;;;;;5.00;4.50;;;;;;;;;;5001440;28;20437;-80
2021/04/25 12:48:49;;;;;;;5.57;4.70;;;;;;;;;;5020310;28;20445;-85
2021/04/25 12:51:19;;;;;;;4.87;3.40;;;;;;;;;;5023918;28;20437;-81
2021/04/25 12:53:52;;;;;;;7.40;4.80;;;;;;;;;;5019480;28;20410;-79
2021/04/25 12:56:23;;;;;;;5.40;4.10;;;;;;;;;;5022577;28;20438;-80
2021/04/25 12:59:04;;;;;;;5.07;3.60;;;;;;;;;;5021265;28;20441;-84
2021/04/25 13:01:32;;;;;;;6.13;3.50;;;;;;;;;;5032858;28;20998;-83
2021/04/25 13:03:58;;;;;;;4.67;3.70;;;;;;;;;;5020096;28;20423;-79
2021/04/25 13:06:31;;;;;;;4.70;4.30;;;;;;;;;;5012630;28;20454;-80
2021/04/25 13:08:57;;;;;;;4.57;3.83;;;;;;;;;;5033104;28;21098;-82
2021/04/25 13:11:37;;;;;;;8.10;4.10;;;;;;;;;;5019245;28;20403;-81
2021/04/25 13:14:08;;;;;;;5.10;3.80;;;;;;;;;;5002091;28;20404;-79
2021/04/25 13:16:34;;;;;;;7.27;4.23;;;;;;;;;;5018913;28;20474;-81
2021/04/25 13:19:01;;;;;;;7.10;4.37;;;;;;;;;;5021536;28;20423;-83
2021/04/25 13:21:46;;;;;;;7.33;4.63;;;;;;;;;;5023360;28;20435;-84
2021/04/25 13:24:16;;;;;;;5.30;3.73;;;;;;;;;;5034498;28;20403;-82
2021/04/25 13:26:43;;;;;;;7.17;4.73;;;;;;;;;;5018893;28;20392;-79
2021/04/25 13:29:15;;;;;;;4.90;4.40;;;;;;;;;;5024676;28;20509;-80
2021/04/25 13:31:42;;;;;;;5.77;5.00;;;;;;;;;;5035903;28;20443;-79
2021/04/25 13:34:09;;;;;;;5.03;3.50;;;;;;;;;;5003894;28;20611;-79
2021/04/25 13:36:37;;;;;;;7.70;3.47;;;;;;;;;;5016971;28;20445;-85
2021/04/25 13:39:03;;;;;;;5.03;3.80;;;;;;;;;;5023094;28;20447;-85
2021/04/25 13:41:29;;;;;;;4.90;3.97;;;;;;;;;;5023736;28;20758;-85
2021/04/25 13:43:55;;;;;;;5.60;3.57;;;;;;;;;;5019629;28;20444;-86
2021/04/25 13:46:21;;;;;;;3.90;3.50;;;;;;;;;;5017753;28;20433;-82
2021/04/25 13:48:47;;;;;;;5.00;3.70;;;;;;;;;;5021914;28;20504;-78
2021/04/25 13:51:13;;;;;;;4.63;3.67;;;;;;;;;;5027423;28;20495;-85
2021/04/25 13:53:41;;;;;;;3.70;3.30;;;;;;;;;;5004389;28;20831;-85
2021/04/25 13:56:07;;;;;;;5.70;3.80;;;;;;;;;;5034287;28;20472;-84
2021/04/25 13:58:33;;;;;;;5.13;3.80;;;;;;;;;;5017492;28;20434;-82
2021/04/25 14:00:59;;;;;;;7.00;4.47;;;;;;;;;;5035093;28;20448;-79
2021/04/25 14:03:25;;;;;;;7.63;4.30;;;;;;;;;;5018849;28;20533;-80
2021/04/25 14:05:54;;;;;;;7.75;3.25;;;;;;;;;;5032668;28;20240;-81
2021/04/25 14:08:20;;;;;;;6.90;3.72;;;;;;;;;;5033265;28;20197;-85
2021/04/25 14:10:46;;;;;;;5.53;3.72;;;;;;;;;;5027005;28;20698;-79
2021/04/25 14:13:13;;;;;;;6.88;3.75;;;;;;;;;;5033012;28;20188;-81
2021/04/25 14:15:39;;;;;;;6.57;3.90;;;;;;;;;;5022228;28;20210;-81
2021/04/25 14:18:05;;;;;;;5.85;3.80;;;;;;;;;;5038884;28;20183;-81
2021/04/25 14:20:34;;;;;;;5.97;3.55;;;;;;;;;;5018274;28;20174;-89
2021/04/25 14:23:00;;;;;;;5.78;4.00;;;;;;;;;;5019257;28;20189;-81
2021/04/25 14:25:27;;;;;;;4.97;3.80;;;;;;;;;;5032897;28;20198;-82
2021/04/25 14:27:53;;;;;;;7.50;4.00;;;;;;;;;;5018046;28;20230;-81
2021/04/25 14:30:21;;;;;;;6.80;4.15;;;;;;;;;;5037616;28;20587;-83
2021/04/25 14:32:47;;;;;;;8.18;3.63;;;;;;;;;;5020239;28;20186;-84
2021/04/25 14:35:14;;;;;;;9.32;4.35;;;;;;;;;;5018014;28;20202;-80
2021/04/25 14:37:40;;;;;;;5.90;3.85;;;;;;;;;;5021207;28;20640;-84
2021/04/25 14:40:09;;;;;;;4.35;3.35;;;;;;;;;;5014784;28;20291;-76
2021/04/25 14:42:35;;;;;;;4.47;3.88;;;;;;;;;;5025212;28;20285;-80